Canton Center, Connecticut
Current Conditions -  °F | °C
As of 7:04 AM on Monday 24 Nov 2014 (Local Time) from KBDL Reporting Station
Light Rain Light Rain  
Wind Chill: 56°   Ceiling: 1100
Heat Index: 56°   Visibility: 3mi
Dew Point: 52°   Wind: 15mph
Humidity: 87%   Direction: 180°S
Pressure: 29.71"   Gusts: NA
Location:  41.87°N, 72.91°W
Report Text: KBDL 241204Z 18013KT 3SM -RA BR FEW007 OVC011 13/11 A2971 RMK AO2 P0002 T01330111
Loading
Personal Weather Stations






























Interactive Weather Map New forecast layout! Learn more

10-Day Weather Forecast

Advertisements
Track Severe Weather on mobile